sensor_id;sensor_type;location;lat;lon;timestamp;P1;durP1;ratioP1;P2;durP2;ratioP2
71639;SDS011;60912;48.968;10.124;2023-04-19T00:00:46;16.20;;;8.67;;
71639;SDS011;60912;48.968;10.124;2023-04-19T00:03:12;16.52;;;9.23;;
71639;SDS011;60912;48.968;10.124;2023-04-19T00:05:38;16.30;;;9.73;;
71639;SDS011;60912;48.968;10.124;2023-04-19T00:08:04;16.05;;;9.43;;
71639;SDS011;60912;48.968;10.124;2023-04-19T00:10:29;15.57;;;9.70;;
71639;SDS011;60912;48.968;10.124;2023-04-19T00:12:55;16.43;;;9.87;;
71639;SDS011;60912;48.968;10.124;2023-04-19T00:15:20;13.57;;;8.80;;
71639;SDS011;60912;48.968;10.124;2023-04-19T00:17:46;15.73;;;9.50;;
71639;SDS011;60912;48.968;10.124;2023-04-19T00:20:11;14.13;;;9.50;;
71639;SDS011;60912;48.968;10.124;2023-04-19T00:22:37;17.37;;;10.63;;
71639;SDS011;60912;48.968;10.124;2023-04-19T00:25:03;17.67;;;9.52;;
71639;SDS011;60912;48.968;10.124;2023-04-19T00:27:29;16.15;;;10.02;;
71639;SDS011;60912;48.968;10.124;2023-04-19T00:29:54;14.77;;;9.60;;
71639;SDS011;60912;48.968;10.124;2023-04-19T00:32:21;16.08;;;9.88;;
71639;SDS011;60912;48.968;10.124;2023-04-19T00:34:47;16.87;;;9.87;;
71639;SDS011;60912;48.968;10.124;2023-04-19T00:37:12;16.00;;;10.07;;
71639;SDS011;60912;48.968;10.124;2023-04-19T00:39:38;15.80;;;9.65;;
71639;SDS011;60912;48.968;10.124;2023-04-19T00:42:03;15.83;;;10.40;;
71639;SDS011;60912;48.968;10.124;2023-04-19T00:44:28;15.93;;;9.67;;
71639;SDS011;60912;48.968;10.124;2023-04-19T00:46:56;15.23;;;9.15;;
71639;SDS011;60912;48.968;10.124;2023-04-19T00:49:22;16.77;;;10.53;;
71639;SDS011;60912;48.968;10.124;2023-04-19T00:51:48;16.50;;;10.18;;
71639;SDS011;60912;48.968;10.124;2023-04-19T00:54:15;15.77;;;9.73;;
71639;SDS011;60912;48.968;10.124;2023-04-19T00:56:41;16.63;;;10.10;;
71639;SDS011;60912;48.968;10.124;2023-04-19T00:59:08;16.13;;;10.77;;
71639;SDS011;60912;48.968;10.124;2023-04-19T01:01:33;15.18;;;10.38;;
71639;SDS011;60912;48.968;10.124;2023-04-19T01:03:59;17.80;;;10.13;;
71639;SDS011;60912;48.968;10.124;2023-04-19T01:06:26;19.23;;;12.35;;
71639;SDS011;60912;48.968;10.124;2023-04-19T01:08:53;15.70;;;9.73;;
71639;SDS011;60912;48.968;10.124;2023-04-19T01:11:19;17.97;;;10.27;;
71639;SDS011;60912;48.968;10.124;2023-04-19T01:13:44;16.57;;;10.10;;
71639;SDS011;60912;48.968;10.124;2023-04-19T01:16:10;16.10;;;9.43;;
71639;SDS011;60912;48.968;10.124;2023-04-19T01:18:35;18.53;;;10.93;;
71639;SDS011;60912;48.968;10.124;2023-04-19T01:21:03;17.02;;;9.80;;
71639;SDS011;60912;48.968;10.124;2023-04-19T01:23:29;14.77;;;9.70;;
71639;SDS011;60912;48.968;10.124;2023-04-19T01:25:54;15.75;;;9.48;;
71639;SDS011;60912;48.968;10.124;2023-04-19T01:28:20;14.30;;;9.57;;
71639;SDS011;60912;48.968;10.124;2023-04-19T01:30:45;15.97;;;10.73;;
71639;SDS011;60912;48.968;10.124;2023-04-19T01:33:10;16.17;;;10.33;;
71639;SDS011;60912;48.968;10.124;2023-04-19T01:35:36;16.17;;;10.02;;
71639;SDS011;60912;48.968;10.124;2023-04-19T01:38:01;15.77;;;10.20;;
71639;SDS011;60912;48.968;10.124;2023-04-19T01:40:27;16.20;;;10.07;;
71639;SDS011;60912;48.968;10.124;2023-04-19T01:42:52;13.27;;;8.97;;
71639;SDS011;60912;48.968;10.124;2023-04-19T01:45:18;15.85;;;9.57;;
71639;SDS011;60912;48.968;10.124;2023-04-19T01:47:43;16.27;;;9.83;;
71639;SDS011;60912;48.968;10.124;2023-04-19T01:50:09;14.13;;;9.17;;
71639;SDS011;60912;48.968;10.124;2023-04-19T01:52:34;14.90;;;9.93;;
71639;SDS011;60912;48.968;10.124;2023-04-19T01:55:00;14.97;;;9.43;;
71639;SDS011;60912;48.968;10.124;2023-04-19T01:57:26;14.32;;;9.65;;
71639;SDS011;60912;48.968;10.124;2023-04-19T01:59:54;16.97;;;9.60;;
71639;SDS011;60912;48.968;10.124;2023-04-19T02:02:19;16.80;;;10.35;;
71639;SDS011;60912;48.968;10.124;2023-04-19T02:04:45;15.47;;;9.43;;
71639;SDS011;60912;48.968;10.124;2023-04-19T02:07:10;14.57;;;9.20;;
71639;SDS011;60912;48.968;10.124;2023-04-19T02:09:36;15.03;;;9.83;;
71639;SDS011;60912;48.968;10.124;2023-04-19T02:12:03;14.50;;;9.25;;
71639;SDS011;60912;48.968;10.124;2023-04-19T02:14:29;15.00;;;9.60;;
71639;SDS011;60912;48.968;10.124;2023-04-19T02:16:54;14.90;;;9.17;;
71639;SDS011;60912;48.968;10.124;2023-04-19T02:19:20;14.43;;;9.53;;
71639;SDS011;60912;48.968;10.124;2023-04-19T02:21:45;17.10;;;9.90;;
71639;SDS011;60912;48.968;10.124;2023-04-19T02:24:11;13.40;;;8.73;;
71639;SDS011;60912;48.968;10.124;2023-04-19T02:26:36;17.17;;;10.27;;
71639;SDS011;60912;48.968;10.124;2023-04-19T02:29:03;17.50;;;10.13;;
71639;SDS011;60912;48.968;10.124;2023-04-19T02:31:28;15.57;;;9.47;;
71639;SDS011;60912;48.968;10.124;2023-04-19T02:33:53;18.17;;;10.95;;
71639;SDS011;60912;48.968;10.124;2023-04-19T02:36:19;16.07;;;9.77;;
71639;SDS011;60912;48.968;10.124;2023-04-19T02:38:45;19.07;;;9.70;;
71639;SDS011;60912;48.968;10.124;2023-04-19T02:41:10;16.55;;;9.95;;
71639;SDS011;60912;48.968;10.124;2023-04-19T02:43:35;15.73;;;9.80;;
71639;SDS011;60912;48.968;10.124;2023-04-19T02:46:01;14.63;;;9.57;;
71639;SDS011;60912;48.968;10.124;2023-04-19T02:48:27;14.63;;;9.57;;
71639;SDS011;60912;48.968;10.124;2023-04-19T02:50:52;17.17;;;10.23;;
71639;SDS011;60912;48.968;10.124;2023-04-19T02:53:17;16.27;;;10.40;;
71639;SDS011;60912;48.968;10.124;2023-04-19T02:55:43;16.57;;;10.47;;
71639;SDS011;60912;48.968;10.124;2023-04-19T02:58:08;18.47;;;10.87;;
71639;SDS011;60912;48.968;10.124;2023-04-19T03:00:34;18.30;;;10.75;;
71639;SDS011;60912;48.968;10.124;2023-04-19T03:02:59;15.60;;;10.20;;
71639;SDS011;60912;48.968;10.124;2023-04-19T03:05:27;15.70;;;10.07;;
71639;SDS011;60912;48.968;10.124;2023-04-19T03:07:53;14.10;;;10.00;;
71639;SDS011;60912;48.968;10.124;2023-04-19T03:10:18;16.30;;;10.27;;
71639;SDS011;60912;48.968;10.124;2023-04-19T03:12:44;14.25;;;9.30;;
71639;SDS011;60912;48.968;10.124;2023-04-19T03:15:09;16.80;;;10.37;;
71639;SDS011;60912;48.968;10.124;2023-04-19T03:17:35;16.77;;;10.03;;
71639;SDS011;60912;48.968;10.124;2023-04-19T03:20:01;17.70;;;10.40;;
71639;SDS011;60912;48.968;10.124;2023-04-19T03:22:31;17.27;;;10.57;;
71639;SDS011;60912;48.968;10.124;2023-04-19T03:24:56;16.60;;;9.80;;
71639;SDS011;60912;48.968;10.124;2023-04-19T03:27:22;15.37;;;9.57;;
71639;SDS011;60912;48.968;10.124;2023-04-19T03:29:47;15.63;;;9.95;;
71639;SDS011;60912;48.968;10.124;2023-04-19T03:32:12;16.97;;;10.40;;
71639;SDS011;60912;48.968;10.124;2023-04-19T03:34:38;18.37;;;10.43;;
71639;SDS011;60912;48.968;10.124;2023-04-19T03:37:03;16.83;;;10.20;;
71639;SDS011;60912;48.968;10.124;2023-04-19T03:39:29;15.87;;;9.97;;
71639;SDS011;60912;48.968;10.124;2023-04-19T03:41:54;16.75;;;10.23;;
71639;SDS011;60912;48.968;10.124;2023-04-19T03:44:19;16.60;;;10.47;;
71639;SDS011;60912;48.968;10.124;2023-04-19T03:46:45;17.80;;;10.23;;
71639;SDS011;60912;48.968;10.124;2023-04-19T03:49:12;15.20;;;9.98;;
71639;SDS011;60912;48.968;10.124;2023-04-19T03:51:37;17.37;;;10.63;;
71639;SDS011;60912;48.968;10.124;2023-04-19T03:54:03;16.83;;;9.80;;
71639;SDS011;60912;48.968;10.124;2023-04-19T03:56:28;17.40;;;10.20;;
71639;SDS011;60912;48.968;10.124;2023-04-19T03:58:54;14.35;;;9.50;;
71639;SDS011;60912;48.968;10.124;2023-04-19T04:01:19;17.30;;;9.93;;
71639;SDS011;60912;48.968;10.124;2023-04-19T04:03:46;19.98;;;10.15;;
71639;SDS011;60912;48.968;10.124;2023-04-19T04:06:11;19.30;;;10.50;;
71639;SDS011;60912;48.968;10.124;2023-04-19T04:08:37;15.55;;;9.82;;
71639;SDS011;60912;48.968;10.124;2023-04-19T04:11:02;15.70;;;9.80;;
71639;SDS011;60912;48.968;10.124;2023-04-19T04:13:27;15.40;;;10.03;;
71639;SDS011;60912;48.968;10.124;2023-04-19T04:15:53;14.77;;;9.73;;
71639;SDS011;60912;48.968;10.124;2023-04-19T04:18:18;20.03;;;11.67;;
71639;SDS011;60912;48.968;10.124;2023-04-19T04:20:43;18.37;;;10.90;;
71639;SDS011;60912;48.968;10.124;2023-04-19T04:23:09;17.33;;;10.17;;
71639;SDS011;60912;48.968;10.124;2023-04-19T04:25:35;16.60;;;10.33;;
71639;SDS011;60912;48.968;10.124;2023-04-19T04:28:01;18.63;;;11.10;;
71639;SDS011;60912;48.968;10.124;2023-04-19T04:30:30;17.65;;;9.88;;
71639;SDS011;60912;48.968;10.124;2023-04-19T04:32:55;17.53;;;10.30;;
71639;SDS011;60912;48.968;10.124;2023-04-19T04:35:24;17.83;;;10.55;;
71639;SDS011;60912;48.968;10.124;2023-04-19T04:37:50;15.57;;;9.77;;
71639;SDS011;60912;48.968;10.124;2023-04-19T04:40:18;15.85;;;9.88;;
71639;SDS011;60912;48.968;10.124;2023-04-19T04:42:43;16.23;;;10.67;;
71639;SDS011;60912;48.968;10.124;2023-04-19T04:45:09;18.25;;;11.20;;
71639;SDS011;60912;48.968;10.124;2023-04-19T04:47:35;18.85;;;10.25;;
71639;SDS011;60912;48.968;10.124;2023-04-19T04:50:01;18.73;;;10.60;;
71639;SDS011;60912;48.968;10.124;2023-04-19T04:52:27;17.10;;;10.02;;
71639;SDS011;60912;48.968;10.124;2023-04-19T04:54:54;15.07;;;9.15;;
71639;SDS011;60912;48.968;10.124;2023-04-19T04:57:21;17.53;;;9.90;;
71639;SDS011;60912;48.968;10.124;2023-04-19T04:59:47;16.13;;;9.88;;
71639;SDS011;60912;48.968;10.124;2023-04-19T05:02:13;15.10;;;9.73;;
71639;SDS011;60912;48.968;10.124;2023-04-19T05:04:39;15.05;;;10.25;;
71639;SDS011;60912;48.968;10.124;2023-04-19T05:07:04;18.20;;;10.13;;
71639;SDS011;60912;48.968;10.124;2023-04-19T05:09:30;16.90;;;10.10;;
71639;SDS011;60912;48.968;10.124;2023-04-19T05:11:55;16.60;;;9.33;;
71639;SDS011;60912;48.968;10.124;2023-04-19T05:14:21;17.03;;;10.10;;
71639;SDS011;60912;48.968;10.124;2023-04-19T05:16:46;15.88;;;9.75;;
71639;SDS011;60912;48.968;10.124;2023-04-19T05:19:11;17.23;;;9.50;;
71639;SDS011;60912;48.968;10.124;2023-04-19T05:21:37;14.43;;;9.33;;
71639;SDS011;60912;48.968;10.124;2023-04-19T05:24:02;14.53;;;8.90;;
71639;SDS011;60912;48.968;10.124;2023-04-19T05:26:28;12.57;;;8.57;;
71639;SDS011;60912;48.968;10.124;2023-04-19T05:28:53;13.13;;;8.50;;
71639;SDS011;60912;48.968;10.124;2023-04-19T05:31:20;12.75;;;8.63;;
71639;SDS011;60912;48.968;10.124;2023-04-19T05:33:46;13.45;;;8.73;;
71639;SDS011;60912;48.968;10.124;2023-04-19T05:36:11;13.40;;;9.10;;
71639;SDS011;60912;48.968;10.124;2023-04-19T05:38:37;12.60;;;8.63;;
71639;SDS011;60912;48.968;10.124;2023-04-19T05:41:02;13.40;;;8.77;;
71639;SDS011;60912;48.968;10.124;2023-04-19T05:43:28;12.13;;;8.73;;
71639;SDS011;60912;48.968;10.124;2023-04-19T05:45:54;13.70;;;9.23;;
71639;SDS011;60912;48.968;10.124;2023-04-19T05:48:19;14.43;;;8.90;;
71639;SDS011;60912;48.968;10.124;2023-04-19T05:50:44;15.43;;;8.80;;
71639;SDS011;60912;48.968;10.124;2023-04-19T05:53:10;11.50;;;8.13;;
71639;SDS011;60912;48.968;10.124;2023-04-19T05:55:36;12.30;;;8.18;;
71639;SDS011;60912;48.968;10.124;2023-04-19T05:58:01;12.73;;;8.50;;
71639;SDS011;60912;48.968;10.124;2023-04-19T06:00:26;11.57;;;8.30;;
71639;SDS011;60912;48.968;10.124;2023-04-19T06:02:52;13.00;;;8.70;;
71639;SDS011;60912;48.968;10.124;2023-04-19T06:05:17;12.57;;;8.83;;
71639;SDS011;60912;48.968;10.124;2023-04-19T06:07:43;13.97;;;8.83;;
71639;SDS011;60912;48.968;10.124;2023-04-19T06:10:08;13.90;;;9.07;;
71639;SDS011;60912;48.968;10.124;2023-04-19T06:12:34;17.80;;;9.57;;
71639;SDS011;60912;48.968;10.124;2023-04-19T06:15:00;14.23;;;9.87;;
71639;SDS011;60912;48.968;10.124;2023-04-19T06:17:25;14.30;;;9.93;;
71639;SDS011;60912;48.968;10.124;2023-04-19T06:19:51;16.03;;;10.10;;
71639;SDS011;60912;48.968;10.124;2023-04-19T06:22:16;15.30;;;9.40;;
71639;SDS011;60912;48.968;10.124;2023-04-19T06:24:45;14.20;;;8.93;;
71639;SDS011;60912;48.968;10.124;2023-04-19T06:27:11;13.90;;;9.45;;
71639;SDS011;60912;48.968;10.124;2023-04-19T06:29:36;15.67;;;9.63;;
71639;SDS011;60912;48.968;10.124;2023-04-19T06:32:02;13.10;;;9.03;;
71639;SDS011;60912;48.968;10.124;2023-04-19T06:34:27;14.25;;;9.30;;
71639;SDS011;60912;48.968;10.124;2023-04-19T06:36:53;16.37;;;10.17;;
71639;SDS011;60912;48.968;10.124;2023-04-19T06:39:18;16.60;;;9.67;;
71639;SDS011;60912;48.968;10.124;2023-04-19T06:41:43;18.13;;;10.07;;
71639;SDS011;60912;48.968;10.124;2023-04-19T06:44:09;15.52;;;10.38;;
71639;SDS011;60912;48.968;10.124;2023-04-19T06:46:35;17.80;;;9.87;;
71639;SDS011;60912;48.968;10.124;2023-04-19T06:49:01;16.88;;;10.57;;
71639;SDS011;60912;48.968;10.124;2023-04-19T06:51:26;16.97;;;9.77;;
71639;SDS011;60912;48.968;10.124;2023-04-19T06:53:52;17.30;;;10.73;;
71639;SDS011;60912;48.968;10.124;2023-04-19T06:56:17;19.80;;;9.98;;
71639;SDS011;60912;48.968;10.124;2023-04-19T06:59:03;15.27;;;9.40;;
71639;SDS011;60912;48.968;10.124;2023-04-19T07:01:28;15.77;;;9.70;;
71639;SDS011;60912;48.968;10.124;2023-04-19T07:03:54;14.63;;;9.50;;
71639;SDS011;60912;48.968;10.124;2023-04-19T07:06:19;15.27;;;9.27;;
71639;SDS011;60912;48.968;10.124;2023-04-19T07:08:45;17.45;;;9.95;;
71639;SDS011;60912;48.968;10.124;2023-04-19T07:11:10;13.37;;;8.77;;
71639;SDS011;60912;48.968;10.124;2023-04-19T07:13:35;16.27;;;9.47;;
71639;SDS011;60912;48.968;10.124;2023-04-19T07:16:02;16.03;;;9.17;;
71639;SDS011;60912;48.968;10.124;2023-04-19T07:18:29;13.98;;;8.52;;
71639;SDS011;60912;48.968;10.124;2023-04-19T07:20:54;14.00;;;9.33;;
71639;SDS011;60912;48.968;10.124;2023-04-19T07:23:20;13.93;;;9.37;;
71639;SDS011;60912;48.968;10.124;2023-04-19T07:25:45;13.43;;;8.53;;
71639;SDS011;60912;48.968;10.124;2023-04-19T07:28:10;15.43;;;9.57;;
71639;SDS011;60912;48.968;10.124;2023-04-19T07:30:36;14.20;;;8.83;;
71639;SDS011;60912;48.968;10.124;2023-04-19T07:33:02;15.70;;;9.07;;
71639;SDS011;60912;48.968;10.124;2023-04-19T07:35:29;14.48;;;8.73;;
71639;SDS011;60912;48.968;10.124;2023-04-19T07:37:54;14.67;;;8.77;;
71639;SDS011;60912;48.968;10.124;2023-04-19T07:40:19;15.13;;;9.25;;
71639;SDS011;60912;48.968;10.124;2023-04-19T07:42:45;12.87;;;9.00;;
71639;SDS011;60912;48.968;10.124;2023-04-19T07:45:10;14.00;;;9.33;;
71639;SDS011;60912;48.968;10.124;2023-04-19T07:47:36;14.82;;;9.43;;
71639;SDS011;60912;48.968;10.124;2023-04-19T07:50:01;14.30;;;9.70;;
71639;SDS011;60912;48.968;10.124;2023-04-19T07:52:28;16.60;;;10.15;;
71639;SDS011;60912;48.968;10.124;2023-04-19T07:54:53;19.13;;;9.73;;
71639;SDS011;60912;48.968;10.124;2023-04-19T07:57:19;13.53;;;9.07;;
71639;SDS011;60912;48.968;10.124;2023-04-19T07:59:44;15.13;;;9.87;;
71639;SDS011;60912;48.968;10.124;2023-04-19T08:02:09;16.87;;;9.83;;
71639;SDS011;60912;48.968;10.124;2023-04-19T08:04:35;13.98;;;9.30;;
71639;SDS011;60912;48.968;10.124;2023-04-19T08:07:01;14.43;;;9.23;;
71639;SDS011;60912;48.968;10.124;2023-04-19T08:09:28;14.45;;;8.88;;
71639;SDS011;60912;48.968;10.124;2023-04-19T08:11:53;14.83;;;9.17;;
71639;SDS011;60912;48.968;10.124;2023-04-19T08:14:18;14.68;;;8.90;;
71639;SDS011;60912;48.968;10.124;2023-04-19T08:16:44;13.07;;;8.07;;
71639;SDS011;60912;48.968;10.124;2023-04-19T08:19:09;18.07;;;10.83;;
71639;SDS011;60912;48.968;10.124;2023-04-19T08:21:35;16.17;;;10.10;;
71639;SDS011;60912;48.968;10.124;2023-04-19T08:24:00;15.27;;;9.67;;
71639;SDS011;60912;48.968;10.124;2023-04-19T08:26:25;14.60;;;9.30;;
71639;SDS011;60912;48.968;10.124;2023-04-19T08:28:51;14.93;;;9.60;;
71639;SDS011;60912;48.968;10.124;2023-04-19T08:31:16;14.67;;;9.30;;
71639;SDS011;60912;48.968;10.124;2023-04-19T08:33:44;14.55;;;9.05;;
71639;SDS011;60912;48.968;10.124;2023-04-19T08:36:09;14.30;;;9.27;;
71639;SDS011;60912;48.968;10.124;2023-04-19T08:38:34;17.30;;;9.60;;
71639;SDS011;60912;48.968;10.124;2023-04-19T08:41:02;15.75;;;9.40;;
71639;SDS011;60912;48.968;10.124;2023-04-19T08:43:27;14.82;;;9.43;;
71639;SDS011;60912;48.968;10.124;2023-04-19T08:45:57;14.67;;;9.43;;
71639;SDS011;60912;48.968;10.124;2023-04-19T08:48:23;15.93;;;10.25;;
71639;SDS011;60912;48.968;10.124;2023-04-19T08:50:48;15.63;;;9.63;;
71639;SDS011;60912;48.968;10.124;2023-04-19T08:53:15;17.52;;;10.55;;
71639;SDS011;60912;48.968;10.124;2023-04-19T08:55:41;16.25;;;9.80;;
71639;SDS011;60912;48.968;10.124;2023-04-19T08:58:07;13.67;;;9.50;;
71639;SDS011;60912;48.968;10.124;2023-04-19T09:00:33;14.75;;;9.30;;
71639;SDS011;60912;48.968;10.124;2023-04-19T09:03:01;15.80;;;9.70;;
71639;SDS011;60912;48.968;10.124;2023-04-19T09:05:27;15.40;;;9.80;;
71639;SDS011;60912;48.968;10.124;2023-04-19T09:07:53;13.45;;;9.45;;
71639;SDS011;60912;48.968;10.124;2023-04-19T09:10:19;17.83;;;9.17;;
71639;SDS011;60912;48.968;10.124;2023-04-19T09:13:06;14.27;;;8.73;;
71639;SDS011;60912;48.968;10.124;2023-04-19T09:15:34;14.90;;;8.90;;
71639;SDS011;60912;48.968;10.124;2023-04-19T09:18:05;13.73;;;7.93;;
71639;SDS011;60912;48.968;10.124;2023-04-19T09:20:40;14.18;;;9.32;;
71639;SDS011;60912;48.968;10.124;2023-04-19T09:23:08;15.82;;;9.05;;
71639;SDS011;60912;48.968;10.124;2023-04-19T09:25:36;15.65;;;8.57;;
71639;SDS011;60912;48.968;10.124;2023-04-19T09:28:09;13.97;;;8.50;;
71639;SDS011;60912;48.968;10.124;2023-04-19T09:30:35;13.32;;;8.52;;
71639;SDS011;60912;48.968;10.124;2023-04-19T09:33:00;12.77;;;8.60;;
71639;SDS011;60912;48.968;10.124;2023-04-19T09:35:38;15.50;;;8.70;;
71639;SDS011;60912;48.968;10.124;2023-04-19T09:38:03;14.73;;;9.37;;
71639;SDS011;60912;48.968;10.124;2023-04-19T09:40:29;15.27;;;9.13;;
71639;SDS011;60912;48.968;10.124;2023-04-19T09:42:55;13.77;;;8.90;;
71639;SDS011;60912;48.968;10.124;2023-04-19T09:45:20;12.98;;;8.73;;
71639;SDS011;60912;48.968;10.124;2023-04-19T09:47:50;13.20;;;9.37;;
71639;SDS011;60912;48.968;10.124;2023-04-19T09:50:25;19.98;;;10.48;;
71639;SDS011;60912;48.968;10.124;2023-04-19T09:52:51;15.90;;;10.60;;
71639;SDS011;60912;48.968;10.124;2023-04-19T09:55:16;19.10;;;11.10;;
71639;SDS011;60912;48.968;10.124;2023-04-19T09:57:43;19.27;;;10.70;;
71639;SDS011;60912;48.968;10.124;2023-04-19T10:00:09;18.92;;;10.55;;
71639;SDS011;60912;48.968;10.124;2023-04-19T10:02:37;18.27;;;10.10;;
71639;SDS011;60912;48.968;10.124;2023-04-19T10:05:04;18.38;;;10.65;;
71639;SDS011;60912;48.968;10.124;2023-04-19T10:07:32;16.08;;;10.85;;
71639;SDS011;60912;48.968;10.124;2023-04-19T10:09:57;17.63;;;11.50;;
71639;SDS011;60912;48.968;10.124;2023-04-19T10:12:25;22.55;;;11.98;;
71639;SDS011;60912;48.968;10.124;2023-04-19T10:14:52;19.50;;;11.90;;
71639;SDS011;60912;48.968;10.124;2023-04-19T10:17:19;21.02;;;12.18;;
71639;SDS011;60912;48.968;10.124;2023-04-19T10:19:46;19.57;;;12.00;;
71639;SDS011;60912;48.968;10.124;2023-04-19T10:22:12;21.27;;;12.95;;
71639;SDS011;60912;48.968;10.124;2023-04-19T10:24:38;21.45;;;13.40;;
71639;SDS011;60912;48.968;10.124;2023-04-19T10:32:19;19.95;;;12.73;;
71639;SDS011;60912;48.968;10.124;2023-04-19T10:34:44;22.17;;;13.47;;
71639;SDS011;60912;48.968;10.124;2023-04-19T10:37:14;24.17;;;14.40;;
71639;SDS011;60912;48.968;10.124;2023-04-19T10:39:40;20.17;;;13.27;;
71639;SDS011;60912;48.968;10.124;2023-04-19T10:42:07;21.08;;;12.90;;
71639;SDS011;60912;48.968;10.124;2023-04-19T10:44:32;23.20;;;13.43;;
71639;SDS011;60912;48.968;10.124;2023-04-19T10:46:58;21.85;;;13.93;;
71639;SDS011;60912;48.968;10.124;2023-04-19T10:49:24;22.03;;;13.30;;
71639;SDS011;60912;48.968;10.124;2023-04-19T10:51:52;20.38;;;13.48;;
71639;SDS011;60912;48.968;10.124;2023-04-19T10:54:34;24.23;;;14.27;;
71639;SDS011;60912;48.968;10.124;2023-04-19T10:57:06;25.27;;;14.27;;
71639;SDS011;60912;48.968;10.124;2023-04-19T10:59:34;23.57;;;14.73;;
71639;SDS011;60912;48.968;10.124;2023-04-19T11:07:17;19.90;;;13.77;;
71639;SDS011;60912;48.968;10.124;2023-04-19T11:09:45;23.85;;;14.18;;
71639;SDS011;60912;48.968;10.124;2023-04-19T11:12:16;22.70;;;12.68;;
71639;SDS011;60912;48.968;10.124;2023-04-19T11:19:58;21.20;;;13.10;;
71639;SDS011;60912;48.968;10.124;2023-04-19T11:25:03;21.25;;;13.63;;
71639;SDS011;60912;48.968;10.124;2023-04-19T11:27:43;22.60;;;14.00;;
71639;SDS011;60912;48.968;10.124;2023-04-19T11:30:13;22.13;;;14.43;;
71639;SDS011;60912;48.968;10.124;2023-04-19T11:32:44;19.95;;;13.35;;
71639;SDS011;60912;48.968;10.124;2023-04-19T11:35:18;19.48;;;13.32;;
71639;SDS011;60912;48.968;10.124;2023-04-19T11:37:44;18.95;;;13.13;;
71639;SDS011;60912;48.968;10.124;2023-04-19T11:40:13;21.80;;;13.52;;
71639;SDS011;60912;48.968;10.124;2023-04-19T11:42:40;19.23;;;12.17;;
71639;SDS011;60912;48.968;10.124;2023-04-19T11:45:06;19.98;;;12.63;;
71639;SDS011;60912;48.968;10.124;2023-04-19T11:47:33;20.38;;;13.20;;
71639;SDS011;60912;48.968;10.124;2023-04-19T11:50:29;19.90;;;13.00;;
71639;SDS011;60912;48.968;10.124;2023-04-19T11:53:17;19.13;;;11.32;;
71639;SDS011;60912;48.968;10.124;2023-04-19T11:55:45;18.00;;;11.43;;
71639;SDS011;60912;48.968;10.124;2023-04-19T12:06:26;15.38;;;10.23;;
71639;SDS011;60912;48.968;10.124;2023-04-19T12:08:54;13.32;;;8.95;;
71639;SDS011;60912;48.968;10.124;2023-04-19T12:11:21;15.77;;;9.70;;
71639;SDS011;60912;48.968;10.124;2023-04-19T12:14:06;14.57;;;9.03;;
71639;SDS011;60912;48.968;10.124;2023-04-19T12:16:32;14.90;;;9.20;;
71639;SDS011;60912;48.968;10.124;2023-04-19T12:18:58;15.63;;;10.33;;
71639;SDS011;60912;48.968;10.124;2023-04-19T12:21:42;13.93;;;9.27;;
71639;SDS011;60912;48.968;10.124;2023-04-19T12:24:08;13.90;;;9.65;;
71639;SDS011;60912;48.968;10.124;2023-04-19T12:26:34;17.00;;;10.30;;
71639;SDS011;60912;48.968;10.124;2023-04-19T12:29:00;15.03;;;10.07;;
71639;SDS011;60912;48.968;10.124;2023-04-19T12:31:27;15.02;;;9.70;;
71639;SDS011;60912;48.968;10.124;2023-04-19T12:33:56;14.50;;;8.70;;
71639;SDS011;60912;48.968;10.124;2023-04-19T12:36:21;14.43;;;9.50;;
71639;SDS011;60912;48.968;10.124;2023-04-19T12:38:46;13.97;;;9.60;;
71639;SDS011;60912;48.968;10.124;2023-04-19T12:41:12;17.20;;;9.13;;
71639;SDS011;60912;48.968;10.124;2023-04-19T12:43:37;14.93;;;9.20;;
71639;SDS011;60912;48.968;10.124;2023-04-19T12:46:03;14.47;;;9.13;;
71639;SDS011;60912;48.968;10.124;2023-04-19T12:48:29;15.55;;;9.30;;
71639;SDS011;60912;48.968;10.124;2023-04-19T12:50:54;12.90;;;8.73;;
71639;SDS011;60912;48.968;10.124;2023-04-19T12:53:20;15.37;;;9.73;;
71639;SDS011;60912;48.968;10.124;2023-04-19T12:55:46;16.35;;;10.85;;
71639;SDS011;60912;48.968;10.124;2023-04-19T12:58:13;11.95;;;8.50;;
71639;SDS011;60912;48.968;10.124;2023-04-19T13:00:42;14.17;;;8.40;;
71639;SDS011;60912;48.968;10.124;2023-04-19T13:03:08;14.40;;;9.13;;
71639;SDS011;60912;48.968;10.124;2023-04-19T13:05:34;13.75;;;8.88;;
71639;SDS011;60912;48.968;10.124;2023-04-19T13:08:00;12.70;;;8.40;;
71639;SDS011;60912;48.968;10.124;2023-04-19T13:10:25;13.27;;;7.93;;
71639;SDS011;60912;48.968;10.124;2023-04-19T13:12:51;12.33;;;8.37;;
71639;SDS011;60912;48.968;10.124;2023-04-19T13:15:16;15.33;;;8.93;;
71639;SDS011;60912;48.968;10.124;2023-04-19T13:17:42;14.15;;;8.30;;
71639;SDS011;60912;48.968;10.124;2023-04-19T13:20:07;12.40;;;7.83;;
71639;SDS011;60912;48.968;10.124;2023-04-19T13:22:34;12.55;;;8.10;;
71639;SDS011;60912;48.968;10.124;2023-04-19T13:24:59;14.10;;;8.60;;
71639;SDS011;60912;48.968;10.124;2023-04-19T13:27:25;12.63;;;7.70;;
71639;SDS011;60912;48.968;10.124;2023-04-19T13:29:50;11.67;;;7.60;;
71639;SDS011;60912;48.968;10.124;2023-04-19T13:32:18;12.25;;;7.82;;
71639;SDS011;60912;48.968;10.124;2023-04-19T13:34:43;10.37;;;7.10;;
71639;SDS011;60912;48.968;10.124;2023-04-19T13:37:08;13.18;;;7.50;;
71639;SDS011;60912;48.968;10.124;2023-04-19T13:39:34;12.77;;;7.20;;
71639;SDS011;60912;48.968;10.124;2023-04-19T13:42:01;10.35;;;6.85;;
71639;SDS011;60912;48.968;10.124;2023-04-19T13:44:26;12.47;;;7.10;;
71639;SDS011;60912;48.968;10.124;2023-04-19T13:46:52;11.18;;;6.80;;
71639;SDS011;60912;48.968;10.124;2023-04-19T13:49:17;13.13;;;7.60;;
71639;SDS011;60912;48.968;10.124;2023-04-19T13:51:43;9.97;;;6.43;;
71639;SDS011;60912;48.968;10.124;2023-04-19T13:54:09;12.20;;;6.63;;
71639;SDS011;60912;48.968;10.124;2023-04-19T13:56:35;11.50;;;6.23;;
71639;SDS011;60912;48.968;10.124;2023-04-19T13:59:00;9.63;;;5.70;;
71639;SDS011;60912;48.968;10.124;2023-04-19T14:01:26;10.32;;;6.47;;
71639;SDS011;60912;48.968;10.124;2023-04-19T14:03:51;12.57;;;5.80;;
71639;SDS011;60912;48.968;10.124;2023-04-19T14:06:17;11.57;;;5.43;;
71639;SDS011;60912;48.968;10.124;2023-04-19T14:08:43;11.57;;;5.67;;
71639;SDS011;60912;48.968;10.124;2023-04-19T14:11:08;9.23;;;5.40;;
71639;SDS011;60912;48.968;10.124;2023-04-19T14:13:34;9.90;;;5.50;;
71639;SDS011;60912;48.968;10.124;2023-04-19T14:15:59;10.60;;;6.23;;
71639;SDS011;60912;48.968;10.124;2023-04-19T14:18:25;12.23;;;6.43;;
71639;SDS011;60912;48.968;10.124;2023-04-19T14:20:50;9.80;;;5.40;;
71639;SDS011;60912;48.968;10.124;2023-04-19T14:23:16;12.60;;;5.70;;
71639;SDS011;60912;48.968;10.124;2023-04-19T14:25:41;9.48;;;5.18;;
71639;SDS011;60912;48.968;10.124;2023-04-19T14:28:07;10.87;;;5.20;;
71639;SDS011;60912;48.968;10.124;2023-04-19T14:30:32;11.10;;;5.40;;
71639;SDS011;60912;48.968;10.124;2023-04-19T14:32:57;12.67;;;5.73;;
71639;SDS011;60912;48.968;10.124;2023-04-19T14:35:23;16.10;;;5.40;;
71639;SDS011;60912;48.968;10.124;2023-04-19T14:37:48;11.63;;;5.00;;
71639;SDS011;60912;48.968;10.124;2023-04-19T14:40:14;7.77;;;4.17;;